Kitty C — 2EIQ6 — position and weather

sailwx.info

Track history (hours):
 
Tides and Currents Weather Stations Pressure Air Temp Water Temp Dewpoint Dewpoint Depression Visibility Wind Speed Wind Dir Waves Ship Positions

Kitty C

Last reported at 2015-Mar-05 07:33 UTC. Time now 2015-Mar-05 08:12 UTC.
Position N 54°08' E 013°34'.

Length 106 m; draft 4.8 m.

Type: Cargo ship. MMSI: 235085464.

Date/timePositionNaut miles runAvg speedWind from/ knotsBaromVisibWave heightAir tempDewpointWater temp
2015-Mar-05 07:33N 54°08' E 013°34'0 0.0
2015-Mar-05 06:33N 54°08' E 013°34'0 0.0
2015-Mar-05 05:33N 54°08' E 013°34'0 0.0
2015-Mar-05 04:33N 54°08' E 013°34'0 0.0
2015-Mar-05 03:33N 54°08' E 013°34'0 0.0
2015-Mar-05 02:33N 54°08' E 013°34'0 0.0
2015-Mar-05 01:33N 54°08' E 013°34'0 0.0
2015-Mar-05 00:33N 54°08' E 013°34'0 0.0
2015-Mar-04 23:33N 54°08' E 013°34'0 0.0
2015-Mar-04 22:33N 54°08' E 013°34'0 0.0
2015-Mar-04 21:33N 54°08' E 013°34'0 0.0
2015-Mar-04 20:33N 54°08' E 013°34'0 0.0
2015-Mar-04 19:33N 54°08' E 013°34'0 0.0
2015-Mar-04 18:33N 54°08' E 013°34'0 0.0
2015-Mar-04 17:33N 54°08' E 013°34'0 0.0
2015-Mar-04 16:33N 54°08' E 013°34'0 0.0
2015-Mar-04 15:33N 54°08' E 013°34'0 0.0
2015-Mar-04 14:33N 54°08' E 013°34'0 0.0
2015-Mar-04 13:33N 54°08' E 013°34'0 0.0
2015-Mar-04 12:33N 54°08' E 013°34'0 0.0
2015-Mar-04 11:27N 54°08' E 013°34'0 0.0
2015-Mar-04 10:33N 54°08' E 013°34'0 0.0
2015-Mar-04 09:33N 54°08' E 013°34'0 0.0
2015-Mar-04 08:33N 54°08' E 013°34'0 0.0
2015-Mar-04 07:33N 54°08' E 013°34'0 0.0
2015-Mar-04 06:33N 54°08' E 013°34'0 0.0
2015-Mar-04 05:33N 54°08' E 013°34'0 0.0
2015-Mar-04 04:33N 54°08' E 013°34'0 0.0
2015-Mar-04 03:33N 54°08' E 013°34'0 0.0
2015-Mar-04 01:33N 54°08' E 013°34'0 0.0
2015-Mar-04 00:33N 54°08' E 013°34'0 0.0
2015-Mar-03 23:33N 54°08' E 013°34'0 0.0
2015-Mar-03 22:30N 54°08' E 013°34'0 0.0
2015-Mar-03 21:33N 54°08' E 013°34'0 0.0
2015-Mar-03 20:27N 54°08' E 013°34'0 0.0
2015-Mar-03 19:27N 54°08' E 013°34'0 0.4
2015-Mar-03 18:33N 54°08' E 013°34'8 8.5
2015-Mar-03 17:33N 54°15' E 013°43'6 5.7
2015-Mar-03 16:33N 54°20' E 013°49'1 1.2
2015-Mar-03 15:33N 54°21' E 013°50'7 6.6
2015-Mar-03 14:32N 54°26' E 013°42'0 0.0
2015-Mar-03 13:32N 54°26' E 013°42'0 0.0
2015-Mar-03 12:32N 54°26' E 013°42'0 0.0
2015-Mar-03 11:32N 54°26' E 013°42'0 0.0
2015-Mar-03 10:32N 54°26' E 013°42'0 0.0
2015-Mar-03 09:32N 54°26' E 013°42'0 0.0
2015-Mar-03 08:32N 54°26' E 013°42'0 0.0
2015-Mar-03 07:32N 54°26' E 013°42'0 0.0
2015-Mar-03 06:32N 54°26' E 013°42'0 0.0
2015-Mar-03 05:32N 54°26' E 013°42'0 0.0
2015-Mar-03 04:32N 54°26' E 013°42'0 0.0
2015-Mar-03 03:29N 54°26' E 013°42'0 0.0
2015-Mar-03 02:32N 54°26' E 013°42'0 0.0
2015-Mar-03 01:32N 54°26' E 013°42'0 0.0
2015-Mar-03 00:32N 54°26' E 013°42'0 0.0
2015-Mar-02 23:32N 54°26' E 013°42'0 0.0
2015-Mar-02 22:29N 54°26' E 013°42'0 0.0
2015-Mar-02 21:29N 54°26' E 013°42'0 0.0
2015-Mar-02 20:29N 54°26' E 013°42'0 0.0
2015-Mar-02 19:32N 54°26' E 013°42'0 0.0
2015-Mar-02 18:32N 54°26' E 013°42'0 0.0
2015-Mar-02 17:32N 54°26' E 013°42'0 0.0
2015-Mar-02 16:32N 54°26' E 013°42'0 0.0
2015-Mar-02 15:32N 54°26' E 013°42'0 0.0
2015-Mar-02 14:32N 54°26' E 013°42'0 0.0
2015-Mar-02 13:29N 54°26' E 013°42'0 0.0
2015-Mar-02 12:32N 54°26' E 013°42'0 0.0
2015-Mar-02 11:32N 54°26' E 013°42'0 0.0
2015-Mar-02 10:32N 54°26' E 013°42'0 0.1
2015-Mar-02 09:32N 54°26' E 013°42'0 0.0
2015-Mar-02 08:29N 54°26' E 013°42'0 0.0
2015-Mar-02 07:32N 54°26' E 013°42'0 0.0
2015-Mar-02 06:32N 54°26' E 013°42'0 0.0
2015-Mar-02 05:32N 54°26' E 013°42'3 3.2
2015-Mar-02 04:33N 54°29' E 013°43'4 4.5
2015-Mar-02 03:33N 54°33' E 013°44'5 5.3
2015-Mar-02 02:33N 54°37' E 013°39'7 7.4
2015-Mar-02 01:33N 54°43' E 013°31'7 7.2
2015-Mar-02 00:33N 54°43' E 013°18'7 7.3
2015-Mar-01 23:33N 54°43' E 013°06'5 5.1
2015-Mar-01 22:33N 54°43' E 012°57'3 2.6
2015-Mar-01 21:33N 54°43' E 012°52'9 9.1
2015-Mar-01 20:33N 54°39' E 012°38'9 9.5
2015-Mar-01 19:33N 54°34' E 012°24'10 9.7
2015-Mar-01 18:33N 54°27' E 012°14'10 9.7
2015-Mar-01 17:33N 54°25' E 011°57'1110.8
2015-Mar-01 16:33N 54°27' E 011°39'1110.6
2015-Mar-01 15:33N 54°32' E 011°23'10 9.5
2015-Mar-01 14:33N 54°35' E 011°07'2510.8
2015-Mar-01 12:17N 54°31' E 010°25'710.2
2015-Mar-01 11:33N 54°27' E 010°15'6 6.3
2015-Mar-01 10:33N 54°22' E 010°09'5 4.9
2015-Mar-01 09:33N 54°21' E 010°00'4 4.2
2015-Mar-01 08:33N 54°21' E 009°53'8 7.6
2015-Mar-01 07:33N 54°18' E 009°42'4 3.6
2015-Mar-01 06:29N 54°15' E 009°37'14 7.3
2015-Mar-01 04:33N 54°05' E 009°20'8 8.2
2015-Mar-01 03:33N 53°58' E 009°15'4 4.4
2015-Mar-01 02:33N 53°54' E 009°10'4 3.8
2015-Mar-01 01:33N 53°52' E 009°16'1312.7
2015-Mar-01 00:33N 53°43' E 009°29'1111.0
2015-Feb-28 23:33N 53°34' E 009°41'9 9.1
2015-Feb-28 22:33N 53°32' E 009°56'3 3.1
2015-Feb-28 21:33N 53°30' E 009°59'0 0.0
2015-Feb-28 20:29N 53°30' E 009°59'0 0.0
2015-Feb-28 19:32N 53°30' E 009°59'0 0.0
2015-Feb-28 18:26N 53°30' E 009°59'0 0.0
2015-Feb-28 17:32N 53°30' E 009°59'0 0.0
2015-Feb-28 16:32N 53°30' E 009°59'0 0.0
2015-Feb-28 15:32N 53°30' E 009°59'0 0.0
2015-Feb-28 14:32N 53°30' E 009°59'0 0.0
2015-Feb-28 13:32N 53°30' E 009°59'0 0.0
2015-Feb-28 12:32N 53°30' E 009°59'0 0.0
2015-Feb-28 11:32N 53°30' E 009°59'0 0.0
2015-Feb-28 10:29N 53°30' E 009°59'0 0.0
2015-Feb-28 09:32N 53°30' E 009°59'0 0.0
2015-Feb-28 08:26N 53°30' E 009°59'0 0.0
2015-Feb-28 07:32N 53°30' E 009°59'0 0.0
2015-Feb-28 06:32N 53°30' E 009°59'0 0.0
2015-Feb-28 05:32N 53°30' E 009°59'0 0.0
2015-Feb-28 04:32N 53°30' E 009°59'0 0.0
2015-Feb-28 03:32N 53°30' E 009°59'0 0.0
2015-Feb-28 02:29N 53°30' E 009°59'0 0.0
2015-Feb-28 01:32N 53°30' E 009°59'0 0.0
2015-Feb-28 00:32N 53°30' E 009°59'0 0.0
2015-Feb-27 23:32N 53°30' E 009°59'0 0.0
2015-Feb-27 22:32N 53°30' E 009°59'0 0.0
2015-Feb-27 21:26N 53°30' E 009°59'0 0.0
2015-Feb-27 19:32N 53°30' E 009°59'0 0.0
2015-Feb-27 18:26N 53°30' E 009°59'0 0.0
2015-Feb-27 17:32N 53°30' E 009°59'0 0.0
2015-Feb-27 16:32N 53°30' E 009°59'0 0.0
2015-Feb-27 15:29N 53°30' E 009°59'0 0.0
2015-Feb-27 14:32N 53°30' E 009°59'0 0.0
2015-Feb-27 13:32N 53°30' E 009°59'0 0.0
2015-Feb-27 12:29N 53°30' E 009°59'0 0.0
2015-Feb-27 11:29N 53°30' E 009°59'0 0.0
2015-Feb-27 10:32N 53°30' E 009°59'0 0.0
2015-Feb-27 09:32N 53°30' E 009°59'0 0.0
2015-Feb-27 08:32N 53°30' E 009°59'0 0.0
2015-Feb-27 07:32N 53°30' E 009°59'0 0.0
2015-Feb-27 06:32N 53°30' E 009°59'0 0.0
2015-Feb-27 05:26N 53°30' E 009°59'0 0.0
2015-Feb-27 04:26N 53°30' E 009°59'0 0.0
2015-Feb-27 03:29N 53°30' E 009°59'0 0.0
2015-Feb-27 02:26N 53°30' E 009°59'0 0.0
2015-Feb-27 01:32N 53°30' E 009°59'0 0.0
2015-Feb-27 00:32N 53°30' E 009°59'0 0.0
2015-Feb-26 23:32N 53°30' E 009°59'0 0.0
2015-Feb-26 22:32N 53°30' E 009°59'0 0.0
2015-Feb-26 21:29N 53°30' E 009°59'0 0.0
2015-Feb-26 20:32N 53°30' E 009°59'0 0.0
2015-Feb-26 19:32N 53°30' E 009°59'0 0.0
2015-Feb-26 18:32N 53°30' E 009°59'0 0.0
2015-Feb-26 17:32N 53°30' E 009°59'0 0.0
2015-Feb-26 16:32N 53°30' E 009°59'0 0.0
2015-Feb-26 15:32N 53°30' E 009°59'0 0.0
2015-Feb-26 14:32N 53°30' E 009°59'0 0.0
2015-Feb-26 13:33N 53°30' E 009°59'0 0.0
2015-Feb-26 12:32N 53°30' E 009°59'0 0.0
2015-Feb-26 11:32N 53°30' E 009°59'0 0.0
2015-Feb-26 10:32N 53°30' E 009°59'0 0.0
2015-Feb-26 09:32N 53°30' E 009°59'0 0.0
2015-Feb-26 08:32N 53°30' E 009°59'0 0.0
2015-Feb-26 07:26N 53°30' E 009°59'0 0.0
2015-Feb-26 06:32N 53°30' E 009°59'0 0.0
2015-Feb-26 05:26N 53°30' E 009°59'0 0.0
2015-Feb-26 04:34N 53°30' E 009°59'2 1.7
2015-Feb-26 03:33N 53°31' E 009°57'7 6.7
2015-Feb-26 02:33N 53°34' E 009°46'8 8.0
2015-Feb-26 01:33N 53°37' E 009°34'8 7.7
2015-Feb-26 00:31N 53°44' E 009°27'7 7.2
2015-Feb-25 23:33N 53°50' E 009°21'7 6.6
2015-Feb-25 22:34N 53°53' E 009°11'6 6.2
2015-Feb-25 21:34N 53°51' E 009°01'6 6.4
2015-Feb-25 20:33N 53°50' E 008°50'6 6.4
2015-Feb-25 19:33N 53°54' E 008°41'7 6.8
2015-Feb-25 18:33N 53°58' E 008°32'8 8.4
2015-Feb-25 17:33N 53°59' E 008°18'9 8.7
2015-Feb-25 16:33N 53°59' E 008°03'2110.4
2015-Feb-25 14:32N 53°54' E 007°29'1110.5
2015-Feb-25 13:31N 53°52' E 007°11'5210.4
2015-Feb-25 08:33N 53°38' E 005°47'9 9.0
2015-Feb-25 07:33N 53°35' E 005°33'8 8.5
2015-Feb-25 06:33N 53°32' E 005°19'8 8.3
2015-Feb-25 05:33N 53°29' E 005°06'8 8.5
2015-Feb-25 04:33N 53°26' E 004°53'8 8.0
2015-Feb-25 03:33N 53°22' E 004°41'131 9.4
2015-Feb-24 13:34N 51°39' E 002°28'8 8.0
2015-Feb-24 12:34N 51°33' E 002°19'7 7.4
2015-Feb-24 11:34N 51°27' E 002°13'8 7.8
2015-Feb-24 10:33N 51°20' E 002°08'8 8.3
2015-Feb-24 09:33N 51°12' E 002°02'9 9.2
2015-Feb-24 08:33N 51°08' E 001°49'10 9.9
2015-Feb-24 07:34N 51°01' E 001°38'  
Track history (hours):
 
Tides and Currents Weather Stations Pressure Air Temp Water Temp Dewpoint Dewpoint Depression Visibility Wind Speed Wind Dir Waves Ship Positions

Kitty C

Last reported at 2015-Mar-05 07:33 UTC. Time now 2015-Mar-05 08:12 UTC.
Position N 54°08' E 013°34'.

Length 106 m; draft 4.8 m.

Type: Cargo ship. MMSI: 235085464.

Date/timePositionNaut miles runAvg speedWind from/ knotsBaromVisibWave heightAir tempDewpointWater temp
2015-Mar-05 07:33N 54°08' E 013°34'0 0.0
2015-Mar-05 06:33N 54°08' E 013°34'0 0.0
2015-Mar-05 05:33N 54°08' E 013°34'0 0.0
2015-Mar-05 04:33N 54°08' E 013°34'0 0.0
2015-Mar-05 03:33N 54°08' E 013°34'0 0.0
2015-Mar-05 02:33N 54°08' E 013°34'0 0.0
2015-Mar-05 01:33N 54°08' E 013°34'0 0.0
2015-Mar-05 00:33N 54°08' E 013°34'0 0.0
2015-Mar-04 23:33N 54°08' E 013°34'0 0.0
2015-Mar-04 22:33N 54°08' E 013°34'0 0.0
2015-Mar-04 21:33N 54°08' E 013°34'0 0.0
2015-Mar-04 20:33N 54°08' E 013°34'0 0.0
2015-Mar-04 19:33N 54°08' E 013°34'0 0.0
2015-Mar-04 18:33N 54°08' E 013°34'0 0.0
2015-Mar-04 17:33N 54°08' E 013°34'0 0.0
2015-Mar-04 16:33N 54°08' E 013°34'0 0.0
2015-Mar-04 15:33N 54°08' E 013°34'0 0.0
2015-Mar-04 14:33N 54°08' E 013°34'0 0.0
2015-Mar-04 13:33N 54°08' E 013°34'0 0.0
2015-Mar-04 12:33N 54°08' E 013°34'0 0.0
2015-Mar-04 11:27N 54°08' E 013°34'0 0.0
2015-Mar-04 10:33N 54°08' E 013°34'0 0.0
2015-Mar-04 09:33N 54°08' E 013°34'0 0.0
2015-Mar-04 08:33N 54°08' E 013°34'0 0.0
2015-Mar-04 07:33N 54°08' E 013°34'0 0.0
2015-Mar-04 06:33N 54°08' E 013°34'0 0.0
2015-Mar-04 05:33N 54°08' E 013°34'0 0.0
2015-Mar-04 04:33N 54°08' E 013°34'0 0.0
2015-Mar-04 03:33N 54°08' E 013°34'0 0.0
2015-Mar-04 01:33N 54°08' E 013°34'0 0.0
2015-Mar-04 00:33N 54°08' E 013°34'0 0.0
2015-Mar-03 23:33N 54°08' E 013°34'0 0.0
2015-Mar-03 22:30N 54°08' E 013°34'0 0.0
2015-Mar-03 21:33N 54°08' E 013°34'0 0.0
2015-Mar-03 20:27N 54°08' E 013°34'0 0.0
2015-Mar-03 19:27N 54°08' E 013°34'0 0.4
2015-Mar-03 18:33N 54°08' E 013°34'8 8.5
2015-Mar-03 17:33N 54°15' E 013°43'6 5.7
2015-Mar-03 16:33N 54°20' E 013°49'1 1.2
2015-Mar-03 15:33N 54°21' E 013°50'7 6.6
2015-Mar-03 14:32N 54°26' E 013°42'0 0.0
2015-Mar-03 13:32N 54°26' E 013°42'0 0.0
2015-Mar-03 12:32N 54°26' E 013°42'0 0.0
2015-Mar-03 11:32N 54°26' E 013°42'0 0.0
2015-Mar-03 10:32N 54°26' E 013°42'0 0.0
2015-Mar-03 09:32N 54°26' E 013°42'0 0.0
2015-Mar-03 08:32N 54°26' E 013°42'0 0.0
2015-Mar-03 07:32N 54°26' E 013°42'0 0.0
2015-Mar-03 06:32N 54°26' E 013°42'0 0.0
2015-Mar-03 05:32N 54°26' E 013°42'0 0.0
2015-Mar-03 04:32N 54°26' E 013°42'0 0.0
2015-Mar-03 03:29N 54°26' E 013°42'0 0.0
2015-Mar-03 02:32N 54°26' E 013°42'0 0.0
2015-Mar-03 01:32N 54°26' E 013°42'0 0.0
2015-Mar-03 00:32N 54°26' E 013°42'0 0.0
2015-Mar-02 23:32N 54°26' E 013°42'0 0.0
2015-Mar-02 22:29N 54°26' E 013°42'0 0.0
2015-Mar-02 21:29N 54°26' E 013°42'0 0.0
2015-Mar-02 20:29N 54°26' E 013°42'0 0.0
2015-Mar-02 19:32N 54°26' E 013°42'0 0.0
2015-Mar-02 18:32N 54°26' E 013°42'0 0.0
2015-Mar-02 17:32N 54°26' E 013°42'0 0.0
2015-Mar-02 16:32N 54°26' E 013°42'0 0.0
2015-Mar-02 15:32N 54°26' E 013°42'0 0.0
2015-Mar-02 14:32N 54°26' E 013°42'0 0.0
2015-Mar-02 13:29N 54°26' E 013°42'0 0.0
2015-Mar-02 12:32N 54°26' E 013°42'0 0.0
2015-Mar-02 11:32N 54°26' E 013°42'0 0.0
2015-Mar-02 10:32N 54°26' E 013°42'0 0.1
2015-Mar-02 09:32N 54°26' E 013°42'0 0.0
2015-Mar-02 08:29N 54°26' E 013°42'0 0.0
2015-Mar-02 07:32N 54°26' E 013°42'0 0.0
2015-Mar-02 06:32N 54°26' E 013°42'0 0.0
2015-Mar-02 05:32N 54°26' E 013°42'3 3.2
2015-Mar-02 04:33N 54°29' E 013°43'4 4.5
2015-Mar-02 03:33N 54°33' E 013°44'5 5.3
2015-Mar-02 02:33N 54°37' E 013°39'7 7.4
2015-Mar-02 01:33N 54°43' E 013°31'7 7.2
2015-Mar-02 00:33N 54°43' E 013°18'7 7.3
2015-Mar-01 23:33N 54°43' E 013°06'5 5.1
2015-Mar-01 22:33N 54°43' E 012°57'3 2.6
2015-Mar-01 21:33N 54°43' E 012°52'9 9.1
2015-Mar-01 20:33N 54°39' E 012°38'9 9.5
2015-Mar-01 19:33N 54°34' E 012°24'10 9.7
2015-Mar-01 18:33N 54°27' E 012°14'10 9.7
2015-Mar-01 17:33N 54°25' E 011°57'1110.8
2015-Mar-01 16:33N 54°27' E 011°39'1110.6
2015-Mar-01 15:33N 54°32' E 011°23'10 9.5
2015-Mar-01 14:33N 54°35' E 011°07'2510.8
2015-Mar-01 12:17N 54°31' E 010°25'710.2
2015-Mar-01 11:33N 54°27' E 010°15'6 6.3
2015-Mar-01 10:33N 54°22' E 010°09'5 4.9
2015-Mar-01 09:33N 54°21' E 010°00'4 4.2
2015-Mar-01 08:33N 54°21' E 009°53'8 7.6
2015-Mar-01 07:33N 54°18' E 009°42'4 3.6
2015-Mar-01 06:29N 54°15' E 009°37'14 7.3
2015-Mar-01 04:33N 54°05' E 009°20'8 8.2
2015-Mar-01 03:33N 53°58' E 009°15'4 4.4
2015-Mar-01 02:33N 53°54' E 009°10'4 3.8
2015-Mar-01 01:33N 53°52' E 009°16'1312.7
2015-Mar-01 00:33N 53°43' E 009°29'1111.0
2015-Feb-28 23:33N 53°34' E 009°41'9 9.1
2015-Feb-28 22:33N 53°32' E 009°56'3 3.1
2015-Feb-28 21:33N 53°30' E 009°59'0 0.0
2015-Feb-28 20:29N 53°30' E 009°59'0 0.0
2015-Feb-28 19:32N 53°30' E 009°59'0 0.0
2015-Feb-28 18:26N 53°30' E 009°59'0 0.0
2015-Feb-28 17:32N 53°30' E 009°59'0 0.0
2015-Feb-28 16:32N 53°30' E 009°59'0 0.0
2015-Feb-28 15:32N 53°30' E 009°59'0 0.0
2015-Feb-28 14:32N 53°30' E 009°59'0 0.0
2015-Feb-28 13:32N 53°30' E 009°59'0 0.0
2015-Feb-28 12:32N 53°30' E 009°59'0 0.0
2015-Feb-28 11:32N 53°30' E 009°59'0 0.0
2015-Feb-28 10:29N 53°30' E 009°59'0 0.0
2015-Feb-28 09:32N 53°30' E 009°59'0 0.0
2015-Feb-28 08:26N 53°30' E 009°59'0 0.0
2015-Feb-28 07:32N 53°30' E 009°59'0 0.0
2015-Feb-28 06:32N 53°30' E 009°59'0 0.0
2015-Feb-28 05:32N 53°30' E 009°59'0 0.0
2015-Feb-28 04:32N 53°30' E 009°59'0 0.0
2015-Feb-28 03:32N 53°30' E 009°59'0 0.0
2015-Feb-28 02:29N 53°30' E 009°59'0 0.0
2015-Feb-28 01:32N 53°30' E 009°59'0 0.0
2015-Feb-28 00:32N 53°30' E 009°59'0 0.0
2015-Feb-27 23:32N 53°30' E 009°59'0 0.0
2015-Feb-27 22:32N 53°30' E 009°59'0 0.0
2015-Feb-27 21:26N 53°30' E 009°59'0 0.0
2015-Feb-27 19:32N 53°30' E 009°59'0 0.0
2015-Feb-27 18:26N 53°30' E 009°59'0 0.0
2015-Feb-27 17:32N 53°30' E 009°59'0 0.0
2015-Feb-27 16:32N 53°30' E 009°59'0 0.0
2015-Feb-27 15:29N 53°30' E 009°59'0 0.0
2015-Feb-27 14:32N 53°30' E 009°59'0 0.0
2015-Feb-27 13:32N 53°30' E 009°59'0 0.0
2015-Feb-27 12:29N 53°30' E 009°59'0 0.0
2015-Feb-27 11:29N 53°30' E 009°59'0 0.0
2015-Feb-27 10:32N 53°30' E 009°59'0 0.0
2015-Feb-27 09:32N 53°30' E 009°59'0 0.0
2015-Feb-27 08:32N 53°30' E 009°59'0 0.0
2015-Feb-27 07:32N 53°30' E 009°59'0 0.0
2015-Feb-27 06:32N 53°30' E 009°59'0 0.0
2015-Feb-27 05:26N 53°30' E 009°59'0 0.0
2015-Feb-27 04:26N 53°30' E 009°59'0 0.0
2015-Feb-27 03:29N 53°30' E 009°59'0 0.0
2015-Feb-27 02:26N 53°30' E 009°59'0 0.0
2015-Feb-27 01:32N 53°30' E 009°59'0 0.0
2015-Feb-27 00:32N 53°30' E 009°59'0 0.0
2015-Feb-26 23:32N 53°30' E 009°59'0 0.0
2015-Feb-26 22:32N 53°30' E 009°59'0 0.0
2015-Feb-26 21:29N 53°30' E 009°59'0 0.0
2015-Feb-26 20:32N 53°30' E 009°59'0 0.0
2015-Feb-26 19:32N 53°30' E 009°59'0 0.0
2015-Feb-26 18:32N 53°30' E 009°59'0 0.0
2015-Feb-26 17:32N 53°30' E 009°59'0 0.0
2015-Feb-26 16:32N 53°30' E 009°59'0 0.0
2015-Feb-26 15:32N 53°30' E 009°59'0 0.0
2015-Feb-26 14:32N 53°30' E 009°59'0 0.0
2015-Feb-26 13:33N 53°30' E 009°59'0 0.0
2015-Feb-26 12:32N 53°30' E 009°59'0 0.0
2015-Feb-26 11:32N 53°30' E 009°59'0 0.0
2015-Feb-26 10:32N 53°30' E 009°59'0 0.0
2015-Feb-26 09:32N 53°30' E 009°59'0 0.0
2015-Feb-26 08:32N 53°30' E 009°59'0 0.0
2015-Feb-26 07:26N 53°30' E 009°59'0 0.0
2015-Feb-26 06:32N 53°30' E 009°59'0 0.0
2015-Feb-26 05:26N 53°30' E 009°59'0 0.0
2015-Feb-26 04:34N 53°30' E 009°59'2 1.7
2015-Feb-26 03:33N 53°31' E 009°57'7 6.7
2015-Feb-26 02:33N 53°34' E 009°46'8 8.0
2015-Feb-26 01:33N 53°37' E 009°34'8 7.7
2015-Feb-26 00:31N 53°44' E 009°27'7 7.2
2015-Feb-25 23:33N 53°50' E 009°21'7 6.6
2015-Feb-25 22:34N 53°53' E 009°11'6 6.2
2015-Feb-25 21:34N 53°51' E 009°01'6 6.4
2015-Feb-25 20:33N 53°50' E 008°50'6 6.4
2015-Feb-25 19:33N 53°54' E 008°41'7 6.8
2015-Feb-25 18:33N 53°58' E 008°32'8 8.4
2015-Feb-25 17:33N 53°59' E 008°18'9 8.7
2015-Feb-25 16:33N 53°59' E 008°03'2110.4
2015-Feb-25 14:32N 53°54' E 007°29'1110.5
2015-Feb-25 13:31N 53°52' E 007°11'5210.4
2015-Feb-25 08:33N 53°38' E 005°47'9 9.0
2015-Feb-25 07:33N 53°35' E 005°33'8 8.5
2015-Feb-25 06:33N 53°32' E 005°19'8 8.3
2015-Feb-25 05:33N 53°29' E 005°06'8 8.5
2015-Feb-25 04:33N 53°26' E 004°53'8 8.0
2015-Feb-25 03:33N 53°22' E 004°41'131 9.4
2015-Feb-24 13:34N 51°39' E 002°28'8 8.0
2015-Feb-24 12:34N 51°33' E 002°19'7 7.4
2015-Feb-24 11:34N 51°27' E 002°13'8 7.8
2015-Feb-24 10:33N 51°20' E 002°08'8 8.3
2015-Feb-24 09:33N 51°12' E 002°02'9 9.2
2015-Feb-24 08:33N 51°08' E 001°49'10 9.9
2015-Feb-24 07:34N 51°01' E 001°38'  

Dump ship's entire track history